Aérodrome :
LOGIN :

S'inscrire | Disclaimer

   EN    FR    IT 

 










Légende :    VFR   VFR Marginal   IFR   IFR Intensif   IFR Très Intensif
Visi : 
Plafond : 
>= 8 km
>= 3000ft
5 à 8 km
1000 à 3000 ft
1500m à 5 km
500 à 1000 ft
800 à 1500m
200 à 500 ft
< 800m
< 200 ft
Symboles :   Orages  Brouillard  Fortes neiges  Fortes précipitations  Vent > 20 kt
SIGMETs :   Divers  Orages  Givrage  Turbulence  Onde Orograph.  Cendres Volcan.







- Altitude de l'aérodrome : 665 ft
- Code IATA : NOC


EIKN - Connaught / Knock- Ireland West

DERNIER METAR :
  • 221830Z 35007KT 320V030 9999 FEW035 15/09 Q1032 NOSIG

METARs EXPIRÉS :
  • 221800Z 36007KT 310V040 9999 FEW035 15/09 Q1033 NOSIG
  • 221730Z 35007KT 320V020 9999 FEW035 15/09 Q1033 NOSIG
  • 221700Z 36007KT 310V070 9999 FEW034 16/10 Q1033 NOSIG
  • 221630Z 36007KT 320V030 9999 FEW034 SCT300 16/09 Q1033 NOSIG
  • 221600Z 35009KT 310V030 9999 FEW033 16/09 Q1033 NOSIG

TAF TAF EIKN
Valide du 22 à 18h jusqu'au 23 à 18h UTC


221700Z 2218/2318 34010KT 9999 FEW035
BECMG 2300/2303 VRB03KT
PROB30
TEMPO 2303/2306 4000 BR
Pas de NOTAMs connus pour ce terrain.



MET'MAP, la Météo Aéronautique d'un coup d'oeil ! - Copyright ORBIFLY Décembre 2007 - Disclaimer

ORBIFLY MET'MAP TEAM :

Programmation & Développement : Alexandra Zaïnal
Conception & Développement : Baudouin d'Aumeries
Co-Programmation & Développement : Marc-Olivier Méhu
Soutien technique & logistique : Manuel Goepfert

Contact : metmap@orbifly.com




SOURCES & CREDITS :

   NOAA